createdAt,value
2018-12-27T00:02:26.121Z,91.38
2018-12-27T00:04:57.342Z,91.61
2018-12-27T00:07:28.345Z,91.58
2018-12-27T00:09:59.252Z,91.55
2018-12-27T00:12:30.137Z,91.54
2018-12-27T00:15:01.107Z,91.60
2018-12-27T00:17:32.020Z,91.70
2018-12-27T00:20:02.970Z,91.70
2018-12-27T00:22:33.878Z,91.60
2018-12-27T00:25:05.008Z,91.32
2018-12-27T00:27:35.998Z,91.43
2018-12-27T00:30:07.094Z,91.34
2018-12-27T00:32:38.187Z,90.85
2018-12-27T00:35:09.322Z,90.98
2018-12-27T00:37:40.394Z,91.03
2018-12-27T00:40:11.570Z,90.99
2018-12-27T00:42:42.699Z,91.15
2018-12-27T00:45:13.864Z,91.25
2018-12-27T00:47:45.628Z,91.03
2018-12-27T00:50:16.760Z,90.82
2018-12-27T00:52:47.916Z,90.86
2018-12-27T00:55:19.072Z,90.68
2018-12-27T00:57:50.150Z,90.60
2018-12-27T01:00:21.277Z,90.66
2018-12-27T01:02:52.363Z,90.42
2018-12-27T01:05:23.504Z,90.57
2018-12-27T01:07:54.660Z,90.69
2018-12-27T01:10:25.763Z,90.39
2018-12-27T01:12:56.900Z,90.28
2018-12-27T01:15:27.993Z,90.13
2018-12-27T01:17:59.158Z,90.13
2018-12-27T01:20:30.549Z,90.41
2018-12-27T01:23:01.751Z,90.76
2018-12-27T01:25:33.178Z,90.66
2018-12-27T01:28:04.255Z,90.89
2018-12-27T01:30:35.728Z,90.91
2018-12-27T01:33:06.841Z,91.02
2018-12-27T01:35:38.221Z,90.96
2018-12-27T01:38:09.661Z,90.72
2018-12-27T01:40:40.827Z,90.61
2018-12-27T01:43:15.574Z,90.77
2018-12-27T01:45:46.708Z,90.97
2018-12-27T01:48:17.813Z,91.21
2018-12-27T01:50:48.935Z,91.36
2018-12-27T01:53:20.032Z,91.36
2018-12-27T01:55:51.181Z,91.46
2018-12-27T01:58:22.284Z,91.30
2018-12-27T02:00:53.478Z,91.56
2018-12-27T02:03:26.578Z,91.72
2018-12-27T02:05:57.517Z,91.89
2018-12-27T02:08:28.673Z,92.05
2018-12-27T02:10:59.839Z,91.93
2018-12-27T02:13:32.085Z,91.75
2018-12-27T02:16:03.516Z,91.96
2018-12-27T02:18:34.621Z,92.08
2018-12-27T02:21:05.778Z,92.14
2018-12-27T02:23:37.169Z,91.98
2018-12-27T02:26:08.310Z,92.02
2018-12-27T02:28:39.511Z,91.89
2018-12-27T02:31:10.877Z,91.98
2018-12-27T02:33:42.024Z,92.10
2018-12-27T02:36:13.125Z,92.10
2018-12-27T02:38:48.834Z,91.96
2018-12-27T02:41:20.219Z,91.77
2018-12-27T02:43:51.324Z,91.56
2018-12-27T02:46:22.424Z,91.16
2018-12-27T02:48:53.531Z,89.84
2018-12-27T02:51:24.644Z,89.05
2018-12-27T02:53:55.748Z,88.36
2018-12-27T02:56:27.175Z,88.19
2018-12-27T02:58:58.312Z,87.17
2018-12-27T03:01:29.702Z,86.72
2018-12-27T03:04:01.134Z,86.74
2018-12-27T03:06:32.253Z,87.11
2018-12-27T03:09:04.284Z,87.54
2018-12-27T03:11:35.378Z,88.21
2018-12-27T03:14:06.565Z,88.52
2018-12-27T03:16:37.711Z,89.03
2018-12-27T03:19:09.114Z,89.46
2018-12-27T03:21:40.259Z,90.08
2018-12-27T03:24:11.347Z,90.27
2018-12-27T03:26:42.429Z,90.39
2018-12-27T03:29:13.537Z,90.51
2018-12-27T03:31:44.622Z,90.76
2018-12-27T03:34:15.811Z,91.05
2018-12-27T03:36:47.182Z,91.01
2018-12-27T03:39:18.288Z,90.74
2018-12-27T03:41:49.672Z,90.55
2018-12-27T03:44:21.106Z,90.58
2018-12-27T03:46:52.213Z,90.66
2018-12-27T03:49:23.631Z,90.80
2018-12-27T03:51:54.810Z,90.72
2018-12-27T03:54:25.969Z,90.63
2018-12-27T03:56:57.447Z,90.72
2018-12-27T03:59:28.550Z,90.77
2018-12-27T04:01:59.694Z,90.68
2018-12-27T04:04:30.855Z,90.72
2018-12-27T04:07:01.995Z,90.66
2018-12-27T04:09:33.263Z,89.86
2018-12-27T04:12:04.427Z,88.31
2018-12-27T04:14:35.846Z,86.48
2018-12-27T04:17:07.023Z,84.61
2018-12-27T04:19:37.922Z,82.97
2018-12-27T04:22:09.326Z,81.89
2018-12-27T04:24:40.703Z,81.29
2018-12-27T04:27:11.989Z,80.51
2018-12-27T04:29:42.892Z,79.32
2018-12-27T04:32:14.104Z,79.32
2018-12-27T04:34:45.164Z,79.14
2018-12-27T04:37:16.029Z,78.36
2018-12-27T04:39:47.253Z,78.87
2018-12-27T04:42:19.063Z,79.08
2018-12-27T04:44:50.129Z,79.61
2018-12-27T04:47:21.075Z,80.07
2018-12-27T04:49:51.954Z,80.13
2018-12-27T04:52:23.551Z,79.67
2018-12-27T04:54:54.439Z,79.72
2018-12-27T04:57:25.336Z,78.70
2018-12-27T04:59:56.243Z,76.35
2018-12-27T05:02:27.165Z,74.80
2018-12-27T05:04:58.120Z,73.23
2018-12-27T05:07:29.001Z,73.77
2018-12-27T05:09:59.913Z,74.60
2018-12-27T05:12:30.837Z,74.45
2018-12-27T05:15:01.757Z,74.55
2018-12-27T05:17:33.033Z,74.87
2018-12-27T05:20:03.898Z,74.51
2018-12-27T05:22:35.081Z,74.44
2018-12-27T05:25:06.400Z,73.72
2018-12-27T05:27:37.589Z,73.51
2018-12-27T05:30:08.507Z,73.08
2018-12-27T05:32:39.398Z,72.96
2018-12-27T05:35:10.326Z,73.09
2018-12-27T05:37:41.639Z,73.04
2018-12-27T05:40:12.587Z,72.82
2018-12-27T05:42:43.541Z,74.21
2018-12-27T05:45:14.539Z,74.15
2018-12-27T05:47:45.414Z,74.36
2018-12-27T05:50:16.329Z,74.46
2018-12-27T05:52:47.301Z,74.32
2018-12-27T05:55:18.263Z,75.01
2018-12-27T05:57:49.160Z,74.67
2018-12-27T06:00:20.124Z,74.94
2018-12-27T06:02:51.049Z,75.07
2018-12-27T06:05:21.926Z,74.75
2018-12-27T06:07:53.516Z,74.51
2018-12-27T06:10:24.471Z,73.84
2018-12-27T06:12:55.354Z,73.99
2018-12-27T06:15:26.352Z,74.45
2018-12-27T06:17:57.393Z,74.15
2018-12-27T06:20:28.311Z,74.65
2018-12-27T06:22:59.184Z,74.80
2018-12-27T06:25:30.069Z,75.74
2018-12-27T06:28:00.958Z,75.70
2018-12-27T06:30:31.839Z,75.18
2018-12-27T06:33:02.786Z,74.86
2018-12-27T06:35:34.212Z,74.38
2018-12-27T06:38:05.121Z,73.42
2018-12-27T06:40:36.022Z,73.63
2018-12-27T06:43:07.206Z,73.74
2018-12-27T06:45:38.109Z,74.03
2018-12-27T06:48:09.002Z,74.04
2018-12-27T06:50:39.920Z,73.84
2018-12-27T06:53:10.791Z,74.29
2018-12-27T06:55:42.333Z,74.43
2018-12-27T06:58:13.260Z,74.97
2018-12-27T07:00:44.149Z,74.87
2018-12-27T07:03:15.138Z,74.84
2018-12-27T07:05:46.087Z,74.44
2018-12-27T07:08:17.029Z,75.25
2018-12-27T07:10:48.202Z,74.79
2018-12-27T07:13:19.357Z,75.31
2018-12-27T07:15:50.248Z,75.22
2018-12-27T07:18:21.166Z,75.16
2018-12-27T07:20:52.107Z,75.34
2018-12-27T07:23:24.390Z,75.20
2018-12-27T07:25:55.273Z,75.20
2018-12-27T07:28:26.552Z,74.99
2018-12-27T07:30:57.417Z,74.09
2018-12-27T07:33:28.376Z,74.36
2018-12-27T07:35:59.581Z,74.77
2018-12-27T07:38:30.764Z,74.89
2018-12-27T07:41:01.803Z,74.43
2018-12-27T07:43:32.740Z,74.37
2018-12-27T07:46:10.712Z,74.76
2018-12-27T07:48:36.539Z,75.33
2018-12-27T07:51:07.550Z,75.22
2018-12-27T07:53:38.466Z,74.80
2018-12-27T07:56:09.417Z,74.14
2018-12-27T07:58:40.327Z,74.13
2018-12-27T08:01:11.206Z,74.17
2018-12-27T08:03:42.144Z,73.54
2018-12-27T08:06:13.300Z,73.96
2018-12-27T08:08:44.172Z,73.32
2018-12-27T08:11:15.083Z,72.94
2018-12-27T08:13:45.976Z,73.25
2018-12-27T08:16:16.904Z,73.49
2018-12-27T08:18:47.807Z,72.37
2018-12-27T08:21:18.690Z,72.57
2018-12-27T08:23:49.615Z,73.43
2018-12-27T08:26:20.493Z,72.58
2018-12-27T08:28:51.445Z,72.67
2018-12-27T08:31:22.313Z,72.58
2018-12-27T08:33:53.310Z,72.28
2018-12-27T08:36:24.513Z,71.86
2018-12-27T08:38:55.393Z,71.35
2018-12-27T08:41:26.432Z,72.11
2018-12-27T08:43:57.390Z,71.73
2018-12-27T08:46:28.256Z,72.19
2018-12-27T08:48:59.176Z,71.73
2018-12-27T08:51:30.100Z,70.46
2018-12-27T08:54:01.306Z,70.35
2018-12-27T08:56:32.414Z,70.21
2018-12-27T08:59:03.303Z,70.63
2018-12-27T09:01:34.220Z,70.96
2018-12-27T09:04:05.243Z,70.90
2018-12-27T09:06:36.155Z,70.98
2018-12-27T09:09:09.538Z,70.88
2018-12-27T09:11:40.408Z,69.52
2018-12-27T09:14:11.281Z,69.65
2018-12-27T09:16:42.205Z,70.52
2018-12-27T09:19:13.202Z,71.28
2018-12-27T09:21:44.390Z,71.37
2018-12-27T09:24:15.615Z,71.26
2018-12-27T09:26:46.496Z,71.35
2018-12-27T09:29:17.369Z,70.90
2018-12-27T09:31:48.284Z,71.04
2018-12-27T09:34:19.453Z,71.03
2018-12-27T09:36:50.475Z,71.11
2018-12-27T09:39:21.448Z,71.42
2018-12-27T09:41:52.321Z,71.21
2018-12-27T09:44:23.492Z,71.51
2018-12-27T09:46:54.495Z,71.67
2018-12-27T09:49:25.373Z,71.31
2018-12-27T09:52:01.997Z,71.82
2018-12-27T09:54:28.982Z,71.80
2018-12-27T09:56:59.870Z,71.62
2018-12-27T09:59:31.031Z,70.92
2018-12-27T10:02:01.967Z,71.28
2018-12-27T10:04:33.163Z,70.65
2018-12-27T10:07:04.125Z,71.09
2018-12-27T10:09:35.041Z,70.73
2018-12-27T10:12:05.920Z,70.72
2018-12-27T10:14:36.843Z,69.45
2018-12-27T10:17:07.827Z,68.17
2018-12-27T10:19:38.744Z,68.32
2018-12-27T10:22:09.948Z,67.53
2018-12-27T10:24:41.004Z,67.44
2018-12-27T10:27:11.941Z,67.37
2018-12-27T10:29:43.097Z,67.02
2018-12-27T10:32:14.035Z,66.41
2018-12-27T10:34:44.937Z,67.14
2018-12-27T10:37:16.154Z,66.48
2018-12-27T10:39:47.112Z,66.56
2018-12-27T10:42:18.046Z,66.39
2018-12-27T10:44:48.918Z,66.56
2018-12-27T10:47:19.844Z,67.02
2018-12-27T10:49:51.002Z,66.83
2018-12-27T10:52:21.869Z,66.89
2018-12-27T10:54:52.777Z,66.49
2018-12-27T10:57:23.642Z,66.30
2018-12-27T10:59:54.548Z,67.16
2018-12-27T11:02:25.501Z,66.88
2018-12-27T11:04:57.502Z,67.14
2018-12-27T11:07:28.503Z,66.15
2018-12-27T11:09:59.376Z,66.51
2018-12-27T11:12:30.610Z,65.94
2018-12-27T11:15:01.549Z,65.41
2018-12-27T11:17:32.770Z,65.21
2018-12-27T11:20:03.685Z,65.64
2018-12-27T11:22:34.665Z,64.75
2018-12-27T11:25:05.761Z,64.09
2018-12-27T11:27:36.629Z,63.01
2018-12-27T11:30:08.269Z,63.37
2018-12-27T11:32:39.212Z,63.19
2018-12-27T11:35:10.165Z,63.65
2018-12-27T11:37:41.076Z,64.14
2018-12-27T11:40:11.964Z,64.28
2018-12-27T11:42:42.922Z,64.04
2018-12-27T11:45:13.859Z,63.99
2018-12-27T11:47:44.819Z,63.87
2018-12-27T11:50:15.706Z,63.41
2018-12-27T11:52:46.578Z,63.99
2018-12-27T11:55:17.478Z,64.08
2018-12-27T11:57:48.347Z,63.08
2018-12-27T12:00:19.285Z,63.68
2018-12-27T12:02:50.145Z,64.03
2018-12-27T12:05:21.187Z,63.60
2018-12-27T12:07:52.050Z,63.29
2018-12-27T12:10:22.932Z,62.39
2018-12-27T12:12:53.838Z,62.85
2018-12-27T12:15:25.044Z,62.84
2018-12-27T12:17:56.055Z,62.47
2018-12-27T12:20:27.242Z,61.90
2018-12-27T12:22:58.173Z,62.41
2018-12-27T12:25:29.094Z,62.57
2018-12-27T12:28:00.866Z,63.11
2018-12-27T12:30:31.893Z,63.35
2018-12-27T12:33:03.066Z,63.51
2018-12-27T12:35:33.964Z,63.87
2018-12-27T12:38:05.455Z,64.25
2018-12-27T12:40:39.405Z,63.76
2018-12-27T12:43:10.326Z,63.78
2018-12-27T12:45:41.196Z,63.41
2018-12-27T12:48:12.080Z,63.01
2018-12-27T12:50:43.288Z,63.15
2018-12-27T12:53:14.454Z,63.61
2018-12-27T12:55:45.655Z,64.01
2018-12-27T12:58:16.852Z,64.11
2018-12-27T13:00:48.056Z,64.42
2018-12-27T13:03:18.991Z,65.21
2018-12-27T13:05:49.866Z,65.71
2018-12-27T13:08:20.631Z,65.64
2018-12-27T13:10:51.510Z,66.04
2018-12-27T13:13:22.469Z,66.79
2018-12-27T13:15:53.795Z,67.55
2018-12-27T13:18:24.951Z,68.66
2018-12-27T13:20:55.870Z,69.43
2018-12-27T13:23:26.756Z,72.23
2018-12-27T13:25:57.750Z,73.63
2018-12-27T13:28:29.050Z,74.62
2018-12-27T13:30:59.988Z,75.04
2018-12-27T13:33:30.904Z,75.45
2018-12-27T13:36:01.770Z,75.73
2018-12-27T13:38:32.991Z,75.73
2018-12-27T13:41:04.162Z,75.07
2018-12-27T13:43:35.073Z,71.44
2018-12-27T13:46:06.384Z,70.78
2018-12-27T13:48:37.310Z,71.17
2018-12-27T13:51:08.209Z,70.39
2018-12-27T13:53:39.097Z,69.85
2018-12-27T13:56:09.978Z,69.88
2018-12-27T13:58:40.929Z,69.47
2018-12-27T14:01:12.080Z,68.84
2018-12-27T14:03:42.965Z,69.21
2018-12-27T14:06:13.949Z,68.30
2018-12-27T14:08:45.128Z,68.15
2018-12-27T14:11:16.319Z,68.20
2018-12-27T14:13:47.226Z,67.24
2018-12-27T14:16:18.153Z,66.65
2018-12-27T14:18:49.031Z,66.36
2018-12-27T14:21:19.925Z,65.68
2018-12-27T14:23:50.854Z,65.23
2018-12-27T14:26:22.096Z,65.25
2018-12-27T14:28:53.296Z,64.92
2018-12-27T14:31:24.183Z,65.22
2018-12-27T14:33:55.474Z,65.90
2018-12-27T14:36:26.381Z,65.53
2018-12-27T14:38:57.549Z,65.80
2018-12-27T14:41:28.526Z,65.92
2018-12-27T14:44:01.477Z,65.91
2018-12-27T14:46:32.408Z,65.75
2018-12-27T14:49:03.373Z,66.06
2018-12-27T14:51:34.807Z,65.97
2018-12-27T14:54:05.810Z,66.49
2018-12-27T14:56:36.704Z,66.96
2018-12-27T14:59:07.743Z,66.87
2018-12-27T15:01:38.836Z,67.49
2018-12-27T15:04:09.719Z,67.97
2018-12-27T15:06:46.928Z,68.25
2018-12-27T15:09:13.281Z,68.76
2018-12-27T15:11:44.219Z,69.71
2018-12-27T15:14:15.132Z,70.05
2018-12-27T15:16:46.033Z,70.54
2018-12-27T15:19:16.993Z,71.22
2018-12-27T15:21:48.235Z,71.64
2018-12-27T15:24:19.167Z,72.38
2018-12-27T15:26:50.197Z,72.89
2018-12-27T15:29:21.183Z,72.91
2018-12-27T15:31:52.097Z,73.16
2018-12-27T15:34:23.047Z,73.59
2018-12-27T15:36:54.435Z,72.91
2018-12-27T15:39:25.970Z,72.39
2018-12-27T15:41:57.221Z,71.22
2018-12-27T15:44:28.189Z,69.80
2018-12-27T15:46:59.106Z,68.86
2018-12-27T15:49:30.075Z,67.88
2018-12-27T15:52:01.307Z,65.80
2018-12-27T15:54:32.311Z,66.34
2018-12-27T15:57:03.181Z,66.09
2018-12-27T15:59:34.077Z,66.60
2018-12-27T16:02:05.054Z,66.63
2018-12-27T16:04:35.968Z,66.71
2018-12-27T16:07:06.913Z,67.20
2018-12-27T16:09:37.849Z,67.31
2018-12-27T16:12:08.835Z,67.47
2018-12-27T16:14:40.127Z,67.31
2018-12-27T16:17:11.101Z,67.85
2018-12-27T16:19:42.048Z,67.57
2018-12-27T16:22:12.987Z,67.51
2018-12-27T16:24:44.005Z,66.96
2018-12-27T16:27:15.064Z,66.67
2018-12-27T16:29:46.077Z,66.39
2018-12-27T16:32:17.840Z,65.71
2018-12-27T16:34:48.909Z,65.32
2018-12-27T16:37:19.830Z,63.99
2018-12-27T16:39:50.797Z,63.61
2018-12-27T16:42:22.218Z,62.97
2018-12-27T16:44:53.199Z,62.82
2018-12-27T16:47:24.149Z,62.38
2018-12-27T16:49:55.106Z,62.08
2018-12-27T16:52:26.161Z,60.91
2018-12-27T16:54:57.083Z,61.00
2018-12-27T16:57:28.342Z,61.71
2018-12-27T16:59:59.629Z,61.74
2018-12-27T17:02:30.593Z,61.80
2018-12-27T17:05:01.509Z,61.28
2018-12-27T17:07:32.547Z,61.50
2018-12-27T17:10:03.542Z,61.60
2018-12-27T17:12:34.590Z,61.84
2018-12-27T17:15:05.745Z,61.91
2018-12-27T17:17:36.658Z,61.91
2018-12-27T17:20:08.234Z,62.70
2018-12-27T17:22:39.177Z,62.64
2018-12-27T17:25:10.107Z,62.98
2018-12-27T17:27:41.036Z,63.20
2018-12-27T17:30:12.187Z,63.16
2018-12-27T17:32:43.126Z,62.96
2018-12-27T17:35:14.089Z,63.30
2018-12-27T17:37:45.094Z,63.08
2018-12-27T17:40:15.989Z,63.61
2018-12-27T17:42:47.366Z,63.77
2018-12-27T17:45:18.435Z,63.83
2018-12-27T17:47:49.686Z,64.06
2018-12-27T17:50:20.700Z,64.03
2018-12-27T17:52:51.577Z,64.10
2018-12-27T17:55:22.915Z,64.86
2018-12-27T17:57:53.835Z,65.20
2018-12-27T18:00:24.831Z,65.16
2018-12-27T18:02:55.777Z,65.02
2018-12-27T18:05:26.690Z,65.46
2018-12-27T18:07:57.901Z,65.63
2018-12-27T18:10:29.234Z,65.60
2018-12-27T18:13:00.177Z,66.12
2018-12-27T18:15:31.165Z,66.45
2018-12-27T18:18:02.305Z,66.57
2018-12-27T18:20:33.276Z,66.58
2018-12-27T18:23:04.330Z,66.37
2018-12-27T18:25:35.333Z,66.12
2018-12-27T18:28:06.265Z,66.42
2018-12-27T18:30:37.193Z,66.25
2018-12-27T18:33:08.226Z,65.78
2018-12-27T18:35:39.133Z,66.10
2018-12-27T18:38:10.087Z,65.95
2018-12-27T18:40:41.068Z,65.94
2018-12-27T18:43:12.329Z,65.79
2018-12-27T18:45:43.276Z,65.15
2018-12-27T18:48:14.213Z,65.34
2018-12-27T18:50:45.423Z,65.04
2018-12-27T18:53:16.421Z,65.24
2018-12-27T18:55:47.306Z,64.48
2018-12-27T18:58:18.411Z,64.22
2018-12-27T19:00:49.471Z,63.97
2018-12-27T19:03:20.503Z,63.91
2018-12-27T19:05:51.511Z,63.55
2018-12-27T19:08:22.398Z,62.67
2018-12-27T19:11:46.853Z,62.49
2018-12-27T19:14:17.785Z,62.08
2018-12-27T19:16:48.795Z,62.85
2018-12-27T19:19:19.725Z,62.72
2018-12-27T19:22:04.521Z,62.88
2018-12-27T19:24:35.446Z,63.20
2018-12-27T19:27:06.369Z,63.49
2018-12-27T19:29:37.399Z,63.70
2018-12-27T19:32:08.312Z,63.77
2018-12-27T19:34:39.525Z,63.46
2018-12-27T19:37:10.839Z,64.33
2018-12-27T19:39:42.548Z,63.95
2018-12-27T19:42:14.102Z,64.18
2018-12-27T19:44:45.523Z,64.39
2018-12-27T19:47:17.370Z,64.49
2018-12-27T19:49:49.122Z,64.60
2018-12-27T19:52:21.167Z,65.24
2018-12-27T19:54:53.345Z,65.35
2018-12-27T19:57:25.315Z,65.07
2018-12-27T19:59:57.197Z,65.72
2018-12-27T20:02:30.681Z,65.66
2018-12-27T20:05:03.286Z,66.07
2018-12-27T20:07:35.642Z,66.56
2018-12-27T20:10:07.691Z,66.98
2018-12-27T20:12:40.274Z,67.76
2018-12-27T20:15:12.183Z,68.15
2018-12-27T20:17:45.019Z,68.40
2018-12-27T20:20:17.703Z,68.79
2018-12-27T20:22:49.952Z,69.04
2018-12-27T20:25:22.110Z,69.04
2018-12-27T20:27:54.206Z,69.27
2018-12-27T20:30:26.104Z,69.28
2018-12-27T20:32:58.008Z,69.61
2018-12-27T20:35:30.037Z,69.82
2018-12-27T20:38:06.615Z,69.95
2018-12-27T20:40:35.279Z,70.67
2018-12-27T20:43:07.340Z,70.71
2018-12-27T20:45:39.115Z,71.34
2018-12-27T20:48:12.092Z,71.80
2018-12-27T20:50:44.205Z,71.85
2018-12-27T20:53:15.954Z,71.81
2018-12-27T20:55:47.532Z,72.08
2018-12-27T20:58:19.005Z,72.34
2018-12-27T21:00:50.465Z,72.32
2018-12-27T21:03:21.848Z,72.46
2018-12-27T21:05:53.143Z,72.43
2018-12-27T21:08:24.590Z,72.84
2018-12-27T21:10:55.892Z,72.70
2018-12-27T21:13:26.955Z,72.31
2018-12-27T21:15:57.970Z,72.86
2018-12-27T21:18:29.067Z,72.63
2018-12-27T21:21:00.144Z,73.04
2018-12-27T21:23:31.171Z,73.29
2018-12-27T21:26:02.168Z,73.65
2018-12-27T21:28:33.498Z,73.74
2018-12-27T21:31:04.506Z,74.11
2018-12-27T21:33:35.512Z,74.27
2018-12-27T21:36:06.562Z,74.80
2018-12-27T21:38:37.747Z,74.78
2018-12-27T21:41:08.689Z,74.90
2018-12-27T21:43:39.700Z,75.34
2018-12-27T21:46:10.989Z,75.47
2018-12-27T21:48:41.907Z,75.73
2018-12-27T21:51:12.923Z,75.65
2018-12-27T21:53:44.259Z,75.80
2018-12-27T21:56:15.292Z,75.88
2018-12-27T21:58:46.547Z,76.12
2018-12-27T22:01:17.633Z,76.18
2018-12-27T22:03:48.647Z,76.14
2018-12-27T22:06:20.055Z,76.84
2018-12-27T22:08:51.314Z,76.79
2018-12-27T22:11:22.377Z,76.65
2018-12-27T22:13:53.422Z,76.84
2018-12-27T22:16:24.310Z,76.72
2018-12-27T22:18:55.361Z,76.45
2018-12-27T22:21:26.614Z,76.60
2018-12-27T22:23:57.626Z,76.70
2018-12-27T22:26:28.667Z,77.31
2018-12-27T22:28:59.607Z,77.36
2018-12-27T22:31:30.651Z,77.25
2018-12-27T22:34:01.829Z,76.87
2018-12-27T22:36:32.770Z,76.71
2018-12-27T22:39:05.254Z,76.14
2018-12-27T22:41:36.270Z,75.55
2018-12-27T22:44:07.653Z,75.22
2018-12-27T22:46:38.582Z,75.92
2018-12-27T22:49:09.797Z,76.24
2018-12-27T22:51:40.717Z,76.38
2018-12-27T22:54:11.678Z,76.42
2018-12-27T22:56:42.638Z,75.91
2018-12-27T22:59:13.536Z,75.80
2018-12-27T23:01:44.498Z,76.46
2018-12-27T23:04:15.469Z,76.33
2018-12-27T23:06:46.483Z,76.64
2018-12-27T23:09:17.471Z,76.34
2018-12-27T23:11:48.804Z,76.36
2018-12-27T23:14:19.831Z,76.31
2018-12-27T23:16:51.161Z,76.76
2018-12-27T23:19:22.180Z,77.18
2018-12-27T23:21:53.426Z,77.49
2018-12-27T23:24:24.373Z,78.00
2018-12-27T23:26:55.389Z,77.48
2018-12-27T23:29:26.380Z,77.56
2018-12-27T23:31:57.367Z,77.73
2018-12-27T23:34:28.591Z,77.53
2018-12-27T23:36:59.905Z,77.74
2018-12-27T23:39:30.848Z,77.37
2018-12-27T23:42:01.838Z,77.52
2018-12-27T23:44:32.836Z,77.48
2018-12-27T23:47:03.820Z,77.26
2018-12-27T23:49:34.884Z,77.51
2018-12-27T23:52:05.856Z,77.34
2018-12-27T23:54:36.829Z,77.43
2018-12-27T23:57:07.775Z,77.33
2018-12-27T23:59:38.666Z,77.77
